Hoboken — WDA9734 — position and weather

sailwx.info

Track history (hours):
 
Tides and Currents Weather Stations Pressure Air Temp Water Temp Dewpoint Dewpoint Depression Visibility Wind Speed Wind Dir Waves Ship Positions

Hoboken

Owner: PORT IMPERIAL FERRY CORP, WEEHAWKEN, NJ. More information available from US FCC via Universal Licensing System and Coast Guard Vessel Documentation Center.

Last reported at 2018-Mar-15 18:31 UTC. Time now 2018-Apr-24 07:08 UTC.
Position N 40°46' W 074°01'.
Warning: this ship's position is 39 days out of date.

Date/timePositionNaut miles runAvg speedWind from/ knotsBaromVisibWave heightAir tempDewpointWater temp
2018-Mar-15 18:31N 40°46' W 074°01'1 1.7
2018-Mar-15 18:00N 40°45' W 074°01'1 1.5
2018-Mar-15 17:30N 40°46' W 074°00'1 1.4
2018-Mar-15 17:00N 40°45' W 074°01'1 1.4
2018-Mar-15 16:30N 40°46' W 074°00'1 1.5
2018-Mar-15 16:00N 40°45' W 074°01'1 1.5
2018-Mar-15 15:30N 40°46' W 074°00'1 1.5
2018-Mar-15 15:00N 40°45' W 074°01'1 1.4
2018-Mar-15 14:30N 40°46' W 074°00'0 0.0
2018-Mar-15 14:00N 40°46' W 074°00'1 1.9
2018-Mar-15 13:31N 40°47' W 074°01'0 0.1
2018-Mar-15 13:00N 40°47' W 074°01'0 0.0
2018-Mar-15 12:30N 40°47' W 074°01'0 0.0
2018-Mar-15 12:00N 40°47' W 074°01'0 0.0
2018-Mar-15 11:29N 40°47' W 074°01'0 0.1
2018-Mar-15 11:00N 40°47' W 074°01'0 0.0
2018-Mar-15 10:30N 40°47' W 074°01'0 0.0
2018-Mar-15 09:59N 40°47' W 074°01'0 0.6
2018-Mar-15 09:30N 40°46' W 074°01'0 0.0
2018-Mar-14 11:03N 40°46' W 074°01'0 0.0
2018-Mar-14 11:00N 40°46' W 074°01'0 0.0
2018-Mar-12 14:30N 40°46' W 074°01'4 8.9
2018-Mar-12 14:01N 40°42' W 074°01'3 6.4
2018-Mar-12 13:30N 40°45' W 074°01'2 3.0
2018-Mar-12 13:00N 40°47' W 074°01'4 7.1
2018-Mar-12 12:30N 40°43' W 074°01'1 2.3
2018-Mar-12 12:00N 40°42' W 074°00'3 6.8
2018-Mar-12 11:30N 40°46' W 074°01'1 2.0
2018-Mar-12 11:00N 40°47' W 074°01'3 5.8
2018-Mar-12 10:31N 40°44' W 074°01'3 5.7
2018-Mar-12 10:01N 40°47' W 074°01'0 0.0
2018-Mar-12 09:30N 40°47' W 074°01'0 0.0
2018-Mar-12 08:59N 40°47' W 074°01'0 0.0
2018-Mar-12 08:30N 40°47' W 074°01'0 0.0
2018-Mar-12 08:01N 40°47' W 074°01'0 0.0
2018-Mar-12 07:31N 40°47' W 074°01'  
2018-Mar-09 15:10N 40°47' W 074°01'0 1.6
2018-Mar-09 15:00N 40°46' W 074°00'4 7.0
2018-Mar-09 14:30N 40°43' W 074°01'0 0.0
2018-Mar-09 14:00N 40°43' W 074°01'0 0.0
2018-Mar-09 13:30N 40°43' W 074°01'0 0.0
2018-Mar-09 13:00N 40°43' W 074°01'4 7.3
2018-Mar-09 12:30N 40°47' W 074°01'0 0.0
2018-Mar-09 12:01N 40°47' W 074°01'0 0.0
2018-Mar-09 11:31N 40°47' W 074°01'0 0.0
2018-Mar-09 11:00N 40°47' W 074°01'0 0.0
2018-Mar-09 10:30N 40°47' W 074°01'0 0.0
2018-Mar-09 09:59N 40°47' W 074°01'0 0.0
2018-Mar-08 23:26N 40°47' W 074°01'3 8.0
2018-Mar-08 23:01N 40°43' W 074°01'0 0.8
2018-Mar-08 22:30N 40°43' W 074°01'4 7.4
2018-Mar-08 22:00N 40°47' W 074°01'0 0.0
2018-Mar-08 21:30N 40°47' W 074°01'0 0.0
2018-Mar-07 15:13N 40°47' W 074°01'1 5.6
2018-Mar-07 15:00N 40°45' W 074°01'0 0.3
2018-Mar-07 14:29N 40°46' W 074°01'0 0.0
2018-Mar-07 14:00N 40°46' W 074°01'0 0.0
2018-Mar-07 13:30N 40°46' W 074°01'0 0.0
2018-Mar-07 13:00N 40°46' W 074°01'0 0.0
2018-Mar-07 12:31N 40°46' W 074°01'1 1.5
2018-Mar-07 12:00N 40°46' W 074°01'0 0.0
2018-Mar-06 23:41N 40°46' W 074°01'0 1.6
2018-Mar-06 23:30N 40°46' W 074°00'3 6.6
2018-Mar-06 23:00N 40°43' W 074°01'0 0.6
2018-Mar-06 22:30N 40°43' W 074°01'0 0.7
2018-Mar-06 22:00N 40°43' W 074°01'3 6.1
2018-Mar-06 21:30N 40°46' W 074°01'0 0.0
2018-Mar-06 21:00N 40°46' W 074°01'0 0.6
2018-Mar-06 20:29N 40°47' W 074°01'0 0.0
2018-Mar-06 20:00N 40°47' W 074°01'0 0.0
2018-Mar-06 19:30N 40°47' W 074°01'0 0.0
2018-Mar-06 18:58N 40°47' W 074°01'0 0.0
2018-Mar-06 18:30N 40°47' W 074°01'0 0.0
2018-Mar-06 18:00N 40°47' W 074°01'0 0.0
2018-Mar-06 17:29N 40°47' W 074°01'0 0.0
2018-Mar-06 17:00N 40°47' W 074°01'0 0.0
2018-Mar-06 16:30N 40°47' W 074°01'0 0.0
2018-Mar-06 16:00N 40°47' W 074°01'0 0.0
2018-Mar-06 15:30N 40°47' W 074°01'0 0.0
2018-Mar-06 15:00N 40°47' W 074°01'0 0.0
2018-Mar-06 14:30N 40°47' W 074°01'0 0.0
2018-Mar-06 14:00N 40°47' W 074°01'2 3.2
2018-Mar-06 13:30N 40°45' W 074°01'510.0
2018-Mar-06 13:00N 40°50' W 073°58'4 7.9
2018-Mar-06 12:30N 40°46' W 074°01'0 0.0
2018-Mar-06 02:45N 40°46' W 074°01'313.4
2018-Mar-06 02:30N 40°43' W 074°01'1 2.5
2018-Mar-06 02:00N 40°44' W 074°02'0 0.1
2018-Mar-06 01:31N 40°44' W 074°02'0 0.0
2018-Mar-06 01:01N 40°44' W 074°02'0 0.2
2018-Mar-06 00:30N 40°44' W 074°01'1 2.2
2018-Mar-06 00:01N 40°43' W 074°01'1 2.4
2018-Mar-05 23:30N 40°44' W 074°02'1 2.4
2018-Mar-05 23:00N 40°43' W 074°01'1 2.4
2018-Mar-05 22:30N 40°44' W 074°02'1 2.4
2018-Mar-05 22:00N 40°43' W 074°01'1 2.4
2018-Mar-05 21:30N 40°44' W 074°02'1 2.4
2018-Mar-05 21:01N 40°43' W 074°01'1 2.3
2018-Mar-05 20:30N 40°44' W 074°02'1 2.3
2018-Mar-05 20:00N 40°43' W 074°01'0 0.0
2018-Mar-05 19:31N 40°43' W 074°01'1 2.4
2018-Mar-05 19:00N 40°44' W 074°02'  
Track history (hours):
 
Tides and Currents Weather Stations Pressure Air Temp Water Temp Dewpoint Dewpoint Depression Visibility Wind Speed Wind Dir Waves Ship Positions

Hoboken

Owner: PORT IMPERIAL FERRY CORP, WEEHAWKEN, NJ. More information available from US FCC via Universal Licensing System and Coast Guard Vessel Documentation Center.

Last reported at 2018-Mar-15 18:31 UTC. Time now 2018-Apr-24 07:08 UTC.
Position N 40°46' W 074°01'.
Warning: this ship's position is 39 days out of date.

Date/timePositionNaut miles runAvg speedWind from/ knotsBaromVisibWave heightAir tempDewpointWater temp
2018-Mar-15 18:31N 40°46' W 074°01'1 1.7
2018-Mar-15 18:00N 40°45' W 074°01'1 1.5
2018-Mar-15 17:30N 40°46' W 074°00'1 1.4
2018-Mar-15 17:00N 40°45' W 074°01'1 1.4
2018-Mar-15 16:30N 40°46' W 074°00'1 1.5
2018-Mar-15 16:00N 40°45' W 074°01'1 1.5
2018-Mar-15 15:30N 40°46' W 074°00'1 1.5
2018-Mar-15 15:00N 40°45' W 074°01'1 1.4
2018-Mar-15 14:30N 40°46' W 074°00'0 0.0
2018-Mar-15 14:00N 40°46' W 074°00'1 1.9
2018-Mar-15 13:31N 40°47' W 074°01'0 0.1
2018-Mar-15 13:00N 40°47' W 074°01'0 0.0
2018-Mar-15 12:30N 40°47' W 074°01'0 0.0
2018-Mar-15 12:00N 40°47' W 074°01'0 0.0
2018-Mar-15 11:29N 40°47' W 074°01'0 0.1
2018-Mar-15 11:00N 40°47' W 074°01'0 0.0
2018-Mar-15 10:30N 40°47' W 074°01'0 0.0
2018-Mar-15 09:59N 40°47' W 074°01'0 0.6
2018-Mar-15 09:30N 40°46' W 074°01'0 0.0
2018-Mar-14 11:03N 40°46' W 074°01'0 0.0
2018-Mar-14 11:00N 40°46' W 074°01'0 0.0
2018-Mar-12 14:30N 40°46' W 074°01'4 8.9
2018-Mar-12 14:01N 40°42' W 074°01'3 6.4
2018-Mar-12 13:30N 40°45' W 074°01'2 3.0
2018-Mar-12 13:00N 40°47' W 074°01'4 7.1
2018-Mar-12 12:30N 40°43' W 074°01'1 2.3
2018-Mar-12 12:00N 40°42' W 074°00'3 6.8
2018-Mar-12 11:30N 40°46' W 074°01'1 2.0
2018-Mar-12 11:00N 40°47' W 074°01'3 5.8
2018-Mar-12 10:31N 40°44' W 074°01'3 5.7
2018-Mar-12 10:01N 40°47' W 074°01'0 0.0
2018-Mar-12 09:30N 40°47' W 074°01'0 0.0
2018-Mar-12 08:59N 40°47' W 074°01'0 0.0
2018-Mar-12 08:30N 40°47' W 074°01'0 0.0
2018-Mar-12 08:01N 40°47' W 074°01'0 0.0
2018-Mar-12 07:31N 40°47' W 074°01'  
2018-Mar-09 15:10N 40°47' W 074°01'0 1.6
2018-Mar-09 15:00N 40°46' W 074°00'4 7.0
2018-Mar-09 14:30N 40°43' W 074°01'0 0.0
2018-Mar-09 14:00N 40°43' W 074°01'0 0.0
2018-Mar-09 13:30N 40°43' W 074°01'0 0.0
2018-Mar-09 13:00N 40°43' W 074°01'4 7.3
2018-Mar-09 12:30N 40°47' W 074°01'0 0.0
2018-Mar-09 12:01N 40°47' W 074°01'0 0.0
2018-Mar-09 11:31N 40°47' W 074°01'0 0.0
2018-Mar-09 11:00N 40°47' W 074°01'0 0.0
2018-Mar-09 10:30N 40°47' W 074°01'0 0.0
2018-Mar-09 09:59N 40°47' W 074°01'0 0.0
2018-Mar-08 23:26N 40°47' W 074°01'3 8.0
2018-Mar-08 23:01N 40°43' W 074°01'0 0.8
2018-Mar-08 22:30N 40°43' W 074°01'4 7.4
2018-Mar-08 22:00N 40°47' W 074°01'0 0.0
2018-Mar-08 21:30N 40°47' W 074°01'0 0.0
2018-Mar-07 15:13N 40°47' W 074°01'1 5.6
2018-Mar-07 15:00N 40°45' W 074°01'0 0.3
2018-Mar-07 14:29N 40°46' W 074°01'0 0.0
2018-Mar-07 14:00N 40°46' W 074°01'0 0.0
2018-Mar-07 13:30N 40°46' W 074°01'0 0.0
2018-Mar-07 13:00N 40°46' W 074°01'0 0.0
2018-Mar-07 12:31N 40°46' W 074°01'1 1.5
2018-Mar-07 12:00N 40°46' W 074°01'0 0.0
2018-Mar-06 23:41N 40°46' W 074°01'0 1.6
2018-Mar-06 23:30N 40°46' W 074°00'3 6.6
2018-Mar-06 23:00N 40°43' W 074°01'0 0.6
2018-Mar-06 22:30N 40°43' W 074°01'0 0.7
2018-Mar-06 22:00N 40°43' W 074°01'3 6.1
2018-Mar-06 21:30N 40°46' W 074°01'0 0.0
2018-Mar-06 21:00N 40°46' W 074°01'0 0.6
2018-Mar-06 20:29N 40°47' W 074°01'0 0.0
2018-Mar-06 20:00N 40°47' W 074°01'0 0.0
2018-Mar-06 19:30N 40°47' W 074°01'0 0.0
2018-Mar-06 18:58N 40°47' W 074°01'0 0.0
2018-Mar-06 18:30N 40°47' W 074°01'0 0.0
2018-Mar-06 18:00N 40°47' W 074°01'0 0.0
2018-Mar-06 17:29N 40°47' W 074°01'0 0.0
2018-Mar-06 17:00N 40°47' W 074°01'0 0.0
2018-Mar-06 16:30N 40°47' W 074°01'0 0.0
2018-Mar-06 16:00N 40°47' W 074°01'0 0.0
2018-Mar-06 15:30N 40°47' W 074°01'0 0.0
2018-Mar-06 15:00N 40°47' W 074°01'0 0.0
2018-Mar-06 14:30N 40°47' W 074°01'0 0.0
2018-Mar-06 14:00N 40°47' W 074°01'2 3.2
2018-Mar-06 13:30N 40°45' W 074°01'510.0
2018-Mar-06 13:00N 40°50' W 073°58'4 7.9
2018-Mar-06 12:30N 40°46' W 074°01'0 0.0
2018-Mar-06 02:45N 40°46' W 074°01'313.4
2018-Mar-06 02:30N 40°43' W 074°01'1 2.5
2018-Mar-06 02:00N 40°44' W 074°02'0 0.1
2018-Mar-06 01:31N 40°44' W 074°02'0 0.0
2018-Mar-06 01:01N 40°44' W 074°02'0 0.2
2018-Mar-06 00:30N 40°44' W 074°01'1 2.2
2018-Mar-06 00:01N 40°43' W 074°01'1 2.4
2018-Mar-05 23:30N 40°44' W 074°02'1 2.4
2018-Mar-05 23:00N 40°43' W 074°01'1 2.4
2018-Mar-05 22:30N 40°44' W 074°02'1 2.4
2018-Mar-05 22:00N 40°43' W 074°01'1 2.4
2018-Mar-05 21:30N 40°44' W 074°02'1 2.4
2018-Mar-05 21:01N 40°43' W 074°01'1 2.3
2018-Mar-05 20:30N 40°44' W 074°02'1 2.3
2018-Mar-05 20:00N 40°43' W 074°01'0 0.0
2018-Mar-05 19:31N 40°43' W 074°01'1 2.4
2018-Mar-05 19:00N 40°44' W 074°02'  

Dump ship's entire track history